Página principal
METAR-TAF:

METAR-TAF

Aeroportos :

Mendoza, Argentina

Aeroporto Internacional Gobernador Francisco Gabrielli

latitude: 32-50S, longitude: 068-47W, altura: 705 m

Observação actual do tempo

O boletim foi feito há 40 minutos, às 14:00 UTC
Vento calmo
Temperatura 18°C
Humidade 56%
Pressão 1018 hPa
Visibilidade 10 km ou mais
sem nuvens abaixo de 1500 metros e sem cumulonimbus

METAR: SAME 301400Z 00000KT CAVOK 18/09 Q1018

Hora: 11:40 (14:40 UTC)

Previsão

O boletim foi feito há 3 horas e 40 minutos, às 11:00 UTC
Previsão válida de 30 às 12 UTC a 01 às 12 UTC
Vento 10 kt de nordeste
Visibilidade 10 km ou mais
sem nuvens abaixo de 1500 metros e sem cumulonimbus
Temporariamente
de 30 às 12 UTC a 30 às 14 UTC
Vento 5 kt de nordeste
Visibilidade: 6000 m
Céu limpo

TAF: SAME 301100Z 3012/0112 05010KT CAVOK TX26/2920Z TN10/3010Z TEMPO 3012/3014 05005KT 6000 FUHZ SKC

Observações e previsões do tempo de mais de 4000 aeroportos (mensagens METAR e TAF).

As estações disponíveis são os pontos amarelos e vermelhos sobre o mapa.

Mova o rato sobre o mapa para ver o nome da estação.

Depois clique no ponto para visualizar as observações e previsões meteorológicas.

Para alterar o mapa : clique nos botões verdes com uma cruz preta para aumentar o zoom; no botão verde com uma pitada de zoom; ou nas setas verdes para mapas adjacentes.


METAR-TAF: